Chorlton, United Kingdom
Current Conditions -  °F | °C
As of 10:50 PM on Wednesday 26 Nov 2014 (Local Time) from EGOS Reporting Station
Haze Haze  
Wind Chill: 45°   Ceiling: 900
Heat Index: 45°   Visibility: 1mi
Dew Point: 43°   Wind: 1mph
Humidity: 93%   Direction: 260°W
Pressure: 29.74"   Gusts: NA
Location:  53.05°N, 2.41°W
Report Text: EGOS 262250Z AUTO 26001KT 1600 BR BKN009/// 07/06 Q1007
Loading
Personal Weather Stations






























Interactive Weather Map New forecast layout! Learn more

10-Day Weather Forecast

Advertisements
Track Severe Weather on mobile